Fort Monroe, Virginia
Current Conditions -  °F | °C
As of 11:59 PM on Monday 20 Oct 2014 (Local Time) from KNGU Reporting Station
Broken Clouds Broken Clouds  
Wind Chill: 64°   Ceiling: 28000
Heat Index: 64°   Visibility: 10mi
Dew Point: 55°   Wind: 10mph
Humidity: 72%   Direction: 200°SSW
Pressure: 29.99"   Gusts: NA
Location:  37.01°N, 76.31°W
Report Text: KNGU 210359Z 20009KT 10SM FEW030 BKN280 18/13 A2999 RMK AO2 SLP155 T01780128 $
Loading
Personal Weather Stations






























Interactive Weather Map
Tropical Storm Tracking
New forecast layout! Learn more

10-Day Weather Forecast

Advertisements
Track Severe Weather on mobile